createdAt,value
2022-09-11T00:01:33.352Z,4.07
2022-09-11T00:04:00.400Z,8.97
2022-09-11T00:06:30.117Z,3.77
2022-09-11T00:09:03.055Z,3.40
2022-09-11T00:11:37.772Z,2.37
2022-09-11T00:14:04.979Z,7.47
2022-09-11T00:16:35.379Z,4.83
2022-09-11T00:19:08.936Z,6.57
2022-09-11T00:21:36.606Z,4.07
2022-09-11T00:24:04.443Z,3.27
2022-09-11T00:26:31.739Z,4.37
2022-09-11T00:28:59.066Z,4.90
2022-09-11T00:31:28.494Z,3.50
2022-09-11T00:33:56.592Z,3.83
2022-09-11T00:36:26.629Z,6.63
2022-09-11T00:38:54.567Z,10.27
2022-09-11T00:41:36.447Z,6.73
2022-09-11T00:44:45.475Z,3.30
2022-09-11T00:47:16.245Z,7.73
2022-09-11T00:49:51.340Z,10.77
2022-09-11T00:52:25.234Z,5.80
2022-09-11T00:55:00.090Z,4.87
2022-09-11T00:57:32.832Z,5.00
2022-09-11T01:00:02.331Z,6.20
2022-09-11T01:02:31.690Z,4.47
2022-09-11T01:04:58.760Z,5.13
2022-09-11T01:07:27.211Z,5.23
2022-09-11T01:09:55.918Z,6.03
2022-09-11T01:13:09.318Z,6.30
2022-09-11T01:16:03.838Z,4.73
2022-09-11T01:18:36.584Z,5.67
2022-09-11T01:21:37.093Z,3.97
2022-09-11T01:24:48.364Z,8.87
2022-09-11T01:27:39.863Z,16.20
2022-09-11T01:30:21.838Z,7.70
2022-09-11T01:33:32.397Z,7.37
2022-09-11T01:36:18.103Z,6.67
2022-09-11T01:38:58.006Z,8.63
2022-09-11T01:41:48.718Z,5.23
2022-09-11T01:44:26.426Z,6.00
2022-09-11T01:46:55.123Z,6.50
2022-09-11T01:49:52.245Z,5.80
2022-09-11T01:52:28.257Z,5.80
2022-09-11T01:55:03.689Z,5.50
2022-09-11T01:57:39.808Z,6.83
2022-09-11T02:00:11.457Z,5.27
2022-09-11T02:02:59.920Z,8.30
2022-09-11T02:05:34.086Z,7.33
2022-09-11T02:08:17.901Z,6.10
2022-09-11T02:10:54.225Z,4.73
2022-09-11T02:13:56.992Z,12.47
2022-09-11T02:16:51.952Z,6.27
2022-09-11T02:19:31.339Z,4.70
2022-09-11T02:21:59.056Z,4.17
2022-09-11T02:24:27.430Z,7.20
2022-09-11T02:27:08.523Z,8.80
2022-09-11T02:29:36.575Z,6.43
2022-09-11T02:32:04.706Z,2.50
2022-09-11T02:34:34.324Z,2.50
2022-09-11T02:37:24.320Z,5.40
2022-09-11T02:40:31.505Z,5.87
2022-09-11T02:43:26.397Z,6.03
2022-09-11T02:46:39.060Z,5.33
2022-09-11T02:49:22.214Z,5.20
2022-09-11T02:52:19.109Z,9.43
2022-09-11T02:55:17.079Z,3.10
2022-09-11T02:58:13.355Z,5.40
2022-09-11T03:00:40.617Z,3.77
2022-09-11T03:03:08.657Z,3.30
2022-09-11T03:05:37.283Z,8.23
2022-09-11T03:08:04.416Z,8.77
2022-09-11T03:10:31.501Z,3.43
2022-09-11T03:12:59.835Z,6.23
2022-09-11T03:15:29.515Z,3.27
2022-09-11T03:17:57.922Z,6.60
2022-09-11T03:20:24.960Z,5.60
2022-09-11T03:22:51.999Z,4.47
2022-09-11T03:25:19.001Z,5.70
2022-09-11T03:27:47.594Z,8.63
2022-09-11T03:30:14.849Z,4.90
2022-09-11T03:32:41.827Z,6.43
2022-09-11T03:35:09.409Z,7.47
2022-09-11T03:37:37.803Z,4.97
2022-09-11T03:40:05.695Z,3.33
2022-09-11T03:42:33.484Z,7.63
2022-09-11T03:45:00.661Z,7.33
2022-09-11T03:47:27.649Z,4.53
2022-09-11T03:49:56.124Z,3.53
2022-09-11T03:52:23.269Z,7.80
2022-09-11T03:54:50.590Z,7.27
2022-09-11T03:57:17.652Z,10.93
2022-09-11T03:59:44.861Z,4.90
2022-09-11T04:02:11.954Z,7.13
2022-09-11T04:04:41.178Z,8.07
2022-09-11T04:07:08.176Z,11.00
2022-09-11T04:09:35.224Z,7.23
2022-09-11T04:12:03.027Z,7.47
2022-09-11T04:14:30.084Z,5.97
2022-09-11T04:16:59.624Z,5.83
2022-09-11T04:19:29.469Z,9.93
2022-09-11T04:21:56.929Z,6.00
2022-09-11T04:24:23.946Z,6.30
2022-09-11T04:26:51.217Z,11.83
2022-09-11T04:29:22.691Z,11.37
2022-09-11T04:31:51.400Z,10.17
2022-09-11T04:34:18.984Z,11.73
2022-09-11T04:36:46.129Z,8.83
2022-09-11T04:39:18.536Z,10.13
2022-09-11T04:41:48.852Z,10.47
2022-09-11T04:44:16.588Z,12.30
2022-09-11T04:46:45.323Z,6.43
2022-09-11T04:49:12.739Z,12.57
2022-09-11T04:51:40.726Z,9.93
2022-09-11T04:54:15.526Z,8.53
2022-09-11T04:56:42.818Z,8.30
2022-09-11T04:59:20.447Z,6.43
2022-09-11T05:01:58.566Z,9.20
2022-09-11T05:04:26.565Z,12.53
2022-09-11T05:06:55.169Z,11.83
2022-09-11T05:09:22.487Z,7.87
2022-09-11T05:11:50.528Z,6.80
2022-09-11T05:14:18.479Z,12.40
2022-09-11T05:16:48.223Z,10.47
2022-09-11T05:19:17.537Z,8.93
2022-09-11T05:21:45.927Z,5.47
2022-09-11T05:24:14.276Z,7.50
2022-09-11T05:26:41.656Z,5.67
2022-09-11T05:29:12.364Z,8.10
2022-09-11T05:31:47.968Z,5.60
2022-09-11T05:34:18.334Z,8.27
2022-09-11T05:36:46.004Z,6.23
2022-09-11T05:39:13.393Z,7.80
2022-09-11T05:41:40.868Z,5.37
2022-09-11T05:44:08.038Z,11.73
2022-09-11T05:46:37.625Z,8.73
2022-09-11T05:49:06.158Z,4.23
2022-09-11T05:51:35.891Z,4.17
2022-09-11T05:54:04.418Z,5.30
2022-09-11T05:56:32.439Z,4.73
2022-09-11T05:59:03.933Z,7.77
2022-09-11T06:01:37.859Z,6.20
2022-09-11T06:04:14.604Z,8.13
2022-09-11T06:06:47.973Z,6.00
2022-09-11T06:09:16.182Z,5.30
2022-09-11T06:11:43.564Z,3.47
2022-09-11T06:14:13.279Z,8.57
2022-09-11T06:16:42.357Z,4.90
2022-09-11T06:19:12.845Z,3.97
2022-09-11T06:21:40.999Z,10.23
2022-09-11T06:24:30.496Z,5.50
2022-09-11T06:26:57.809Z,6.63
2022-09-11T06:29:27.156Z,8.47
2022-09-11T06:31:54.807Z,9.63
2022-09-11T06:34:25.003Z,5.97
2022-09-11T06:36:52.638Z,4.83
2022-09-11T06:39:23.143Z,4.13
2022-09-11T06:41:52.127Z,5.57
2022-09-11T06:44:27.497Z,8.40
2022-09-11T06:46:57.639Z,6.73
2022-09-11T06:49:25.853Z,8.07
2022-09-11T06:52:11.521Z,6.57
2022-09-11T06:54:41.265Z,5.27
2022-09-11T06:57:13.617Z,7.03
2022-09-11T06:59:42.555Z,8.20
2022-09-11T07:02:12.415Z,10.33
2022-09-11T07:04:39.532Z,5.47
2022-09-11T07:07:07.304Z,7.57
2022-09-11T07:09:35.956Z,10.07
2022-09-11T07:12:03.665Z,6.57
2022-09-11T07:14:31.309Z,7.90
2022-09-11T07:17:07.521Z,5.80
2022-09-11T07:19:34.579Z,6.93
2022-09-11T07:22:02.472Z,6.80
2022-09-11T07:24:31.150Z,7.67
2022-09-11T07:26:58.895Z,4.77
2022-09-11T07:29:31.871Z,5.07
2022-09-11T07:31:59.996Z,4.83
2022-09-11T07:34:27.919Z,4.57
2022-09-11T07:36:58.265Z,6.63
2022-09-11T07:39:26.869Z,6.43
2022-09-11T07:41:59.749Z,3.20
2022-09-11T07:44:30.086Z,2.70
2022-09-11T07:46:57.785Z,3.13
2022-09-11T07:49:25.170Z,3.30
2022-09-11T07:51:53.716Z,4.07
2022-09-11T07:54:31.227Z,4.07
2022-09-11T07:56:58.653Z,3.67
2022-09-11T07:59:25.728Z,2.97
2022-09-11T08:01:55.695Z,7.23
2022-09-11T08:04:23.332Z,3.77
2022-09-11T08:06:51.695Z,7.10
2022-09-11T08:09:27.873Z,6.13
2022-09-11T08:11:58.933Z,4.97
2022-09-11T08:14:27.541Z,4.70
2022-09-11T08:16:59.647Z,2.37
2022-09-11T08:19:28.970Z,4.90
2022-09-11T08:22:00.408Z,4.80
2022-09-11T08:24:31.084Z,2.33
2022-09-11T08:27:00.612Z,3.03
2022-09-11T08:29:29.951Z,4.20
2022-09-11T08:32:01.631Z,3.50
2022-09-11T08:34:30.621Z,5.83
2022-09-11T08:36:58.055Z,3.70
2022-09-11T08:39:27.673Z,4.23
2022-09-11T08:42:16.607Z,4.47
2022-09-11T08:44:54.196Z,3.07
2022-09-11T08:47:37.143Z,6.57
2022-09-11T08:50:18.340Z,3.10
2022-09-11T08:52:46.349Z,1.43
2022-09-11T08:55:24.325Z,3.20
2022-09-11T08:58:24.508Z,2.90
2022-09-11T09:01:26.894Z,3.70
2022-09-11T09:04:35.541Z,6.93
2022-09-11T09:08:01.917Z,3.57
2022-09-11T09:14:12.870Z,1.50
2022-09-11T09:20:06.315Z,1.27
2022-09-11T09:22:48.503Z,2.53
2022-09-11T09:31:04.970Z,2.27
2022-09-11T09:37:04.411Z,2.30
2022-09-11T09:39:32.499Z,3.47
2022-09-11T09:42:40.174Z,1.70
2022-09-11T09:45:42.851Z,2.83
2022-09-11T09:48:11.899Z,3.93
2022-09-11T09:50:40.862Z,2.73
2022-09-11T09:53:36.187Z,4.23
2022-09-11T09:56:06.184Z,2.97
2022-09-11T09:58:38.932Z,2.07
2022-09-11T10:01:45.391Z,2.77
2022-09-11T10:04:24.651Z,2.63
2022-09-11T10:07:11.595Z,2.60
2022-09-11T10:09:51.683Z,1.20
2022-09-11T10:12:31.762Z,1.43
2022-09-11T10:15:00.623Z,1.50
2022-09-11T10:17:37.859Z,1.40
2022-09-11T10:20:27.036Z,1.47
2022-09-11T10:22:55.681Z,0.93
2022-09-11T10:25:27.459Z,2.23
2022-09-11T10:28:15.216Z,3.40
2022-09-11T10:30:55.040Z,1.77
2022-09-11T10:33:37.395Z,3.27
2022-09-11T10:36:08.538Z,1.37
2022-09-11T10:38:47.857Z,1.70
2022-09-11T10:41:22.310Z,1.13
2022-09-11T10:44:01.809Z,1.63
2022-09-11T10:46:40.209Z,1.87
2022-09-11T10:49:16.285Z,1.73
2022-09-11T10:51:58.824Z,2.73
2022-09-11T10:55:00.209Z,3.33
2022-09-11T10:57:55.250Z,1.57
2022-09-11T11:00:30.465Z,0.83
2022-09-11T11:03:19.349Z,1.53
2022-09-11T11:06:23.777Z,4.80
2022-09-11T11:09:30.824Z,1.73
2022-09-11T11:12:40.146Z,2.10
2022-09-11T11:15:29.943Z,1.80
2022-09-11T11:18:23.214Z,0.63
2022-09-11T11:21:13.873Z,1.80
2022-09-11T11:24:18.157Z,2.87
2022-09-11T11:33:09.105Z,2.40
2022-09-11T11:39:06.018Z,2.63
2022-09-11T11:41:39.610Z,1.83
2022-09-11T11:44:13.700Z,1.13
2022-09-11T11:46:48.932Z,3.10
2022-09-11T11:49:40.276Z,2.13
2022-09-11T11:52:42.787Z,0.70
2022-09-11T11:55:18.070Z,2.50
2022-09-11T11:58:11.896Z,1.83
2022-09-11T12:00:47.159Z,2.33
2022-09-11T12:03:23.869Z,1.40
2022-09-11T12:05:51.155Z,1.67
2022-09-11T12:08:18.276Z,1.37
2022-09-11T12:10:56.472Z,1.20
2022-09-11T12:13:32.683Z,1.63
2022-09-11T12:16:17.994Z,2.20
2022-09-11T12:19:14.368Z,1.03
2022-09-11T12:22:02.631Z,2.07
2022-09-11T12:24:54.595Z,2.50
2022-09-11T12:28:08.638Z,1.00
2022-09-11T12:31:24.648Z,3.90
2022-09-11T12:33:54.687Z,1.10
2022-09-11T12:37:00.817Z,2.13
2022-09-11T12:39:33.206Z,1.00
2022-09-11T12:42:20.554Z,3.90
2022-09-11T12:44:58.452Z,2.30
2022-09-11T12:47:35.580Z,2.40
2022-09-11T12:50:22.580Z,1.63
2022-09-11T12:52:55.040Z,2.03
2022-09-11T12:55:41.087Z,1.50
2022-09-11T12:58:25.467Z,1.13
2022-09-11T13:01:02.478Z,1.00
2022-09-11T13:03:30.344Z,2.67
2022-09-11T13:06:03.331Z,2.07
2022-09-11T13:08:33.862Z,2.03
2022-09-11T13:11:38.442Z,1.03
2022-09-11T13:14:48.274Z,1.73
2022-09-11T13:17:28.183Z,0.70
2022-09-11T13:20:27.767Z,2.40
2022-09-11T13:23:10.745Z,5.93
2022-09-11T13:25:41.036Z,0.93
2022-09-11T13:28:08.067Z,2.30
2022-09-11T13:30:53.181Z,2.13
2022-09-11T13:33:25.847Z,1.07
2022-09-11T13:35:53.084Z,2.73
2022-09-11T13:38:24.826Z,1.13
2022-09-11T13:40:58.692Z,0.60
2022-09-11T13:43:31.049Z,1.20
2022-09-11T13:46:28.879Z,0.73
2022-09-11T13:49:26.011Z,0.63
2022-09-11T13:51:53.272Z,1.65
2022-09-11T13:54:33.082Z,1.10
2022-09-11T13:57:13.666Z,1.25
2022-09-11T13:59:57.026Z,1.17
2022-09-11T14:02:49.773Z,3.63
2022-09-11T14:05:31.578Z,1.40
2022-09-11T14:08:14.362Z,1.45
2022-09-11T14:10:51.087Z,1.48
2022-09-11T14:13:27.842Z,0.95
2022-09-11T14:16:02.144Z,0.80
2022-09-11T14:18:50.232Z,0.88
2022-09-11T14:21:25.881Z,0.93
2022-09-11T14:23:57.583Z,1.75
2022-09-11T14:26:52.416Z,0.70
2022-09-11T14:29:31.569Z,2.63
2022-09-11T14:32:34.342Z,1.35
2022-09-11T14:35:01.484Z,2.20
2022-09-11T14:37:31.472Z,0.75
2022-09-11T14:40:00.441Z,1.38
2022-09-11T14:42:29.995Z,0.70
2022-09-11T14:44:57.258Z,1.60
2022-09-11T14:47:28.734Z,2.60
2022-09-11T14:49:57.601Z,1.58
2022-09-11T14:52:27.319Z,2.72
2022-09-11T14:54:54.759Z,1.08
2022-09-11T14:57:33.429Z,0.95
2022-09-11T15:00:00.634Z,0.63
2022-09-11T15:02:29.095Z,1.77
2022-09-11T15:04:57.850Z,1.33
2022-09-11T15:07:25.234Z,0.70
2022-09-11T15:09:53.387Z,7.28
2022-09-11T15:12:21.374Z,1.38
2022-09-11T15:14:58.528Z,1.40
2022-09-11T15:17:28.275Z,2.55
2022-09-11T15:19:55.358Z,1.25
2022-09-11T15:22:22.424Z,1.20
2022-09-11T15:24:49.857Z,1.05
2022-09-11T15:27:19.297Z,2.28
2022-09-11T15:29:46.493Z,1.58
2022-09-11T15:32:14.560Z,1.13
2022-09-11T15:34:42.599Z,1.60
2022-09-11T15:37:09.659Z,1.13
2022-09-11T15:39:36.676Z,1.58
2022-09-11T15:42:04.092Z,1.25
2022-09-11T15:44:31.081Z,2.05
2022-09-11T15:46:59.260Z,0.75
2022-09-11T15:49:30.123Z,1.23
2022-09-11T15:51:58.092Z,1.58
2022-09-11T15:54:25.895Z,1.05
2022-09-11T15:56:53.239Z,1.27
2022-09-11T15:59:20.749Z,0.85
2022-09-11T16:01:48.149Z,1.02
2022-09-11T16:04:20.321Z,0.88
2022-09-11T16:06:48.529Z,0.63
2022-09-11T16:09:27.305Z,1.05
2022-09-11T16:11:54.789Z,0.85
2022-09-11T16:14:27.553Z,1.63
2022-09-11T16:16:56.381Z,1.30
2022-09-11T16:19:28.079Z,2.20
2022-09-11T16:22:01.132Z,1.00
2022-09-11T16:24:29.887Z,2.92
2022-09-11T16:26:57.064Z,1.23
2022-09-11T16:29:43.979Z,1.75
2022-09-11T16:32:28.096Z,6.15
2022-09-11T16:34:57.413Z,1.20
2022-09-11T16:37:25.112Z,1.40
2022-09-11T16:39:52.736Z,2.25
2022-09-11T16:42:21.387Z,1.55
2022-09-11T16:44:49.537Z,2.17
2022-09-11T16:47:17.345Z,5.43
2022-09-11T16:50:06.031Z,3.10
2022-09-11T16:52:32.350Z,2.47
2022-09-11T16:54:59.534Z,2.45
2022-09-11T16:57:27.540Z,3.95
2022-09-11T16:59:54.809Z,1.15
2022-09-11T17:02:21.817Z,2.92
2022-09-11T17:04:48.967Z,2.30
2022-09-11T17:07:16.003Z,2.13
2022-09-11T17:09:43.929Z,1.90
2022-09-11T17:12:11.645Z,2.42
2022-09-11T17:14:38.989Z,3.40
2022-09-11T17:17:06.229Z,2.07
2022-09-11T17:19:33.398Z,3.27
2022-09-11T17:22:00.466Z,1.57
2022-09-11T17:24:27.676Z,2.03
2022-09-11T17:26:56.314Z,3.20
2022-09-11T17:29:23.822Z,1.80
2022-09-11T17:32:05.067Z,6.33
2022-09-11T17:34:37.878Z,2.63
2022-09-11T17:37:05.450Z,4.03
2022-09-11T17:39:32.629Z,1.77
2022-09-11T17:41:59.698Z,1.43
2022-09-11T17:44:26.731Z,3.30
2022-09-11T17:46:56.756Z,2.00
2022-09-11T17:49:23.799Z,3.50
2022-09-11T17:51:51.144Z,2.00
2022-09-11T17:54:18.974Z,3.57
2022-09-11T17:56:45.962Z,4.10
2022-09-11T17:59:13.203Z,6.57
2022-09-11T18:01:40.257Z,3.80
2022-09-11T18:04:07.355Z,2.83
2022-09-11T18:06:36.920Z,7.47
2022-09-11T18:09:15.191Z,2.33
2022-09-11T18:11:45.296Z,2.03
2022-09-11T18:14:13.975Z,1.30
2022-09-11T18:16:42.707Z,4.50
2022-09-11T18:19:10.829Z,3.27
2022-09-11T18:21:38.735Z,1.40
2022-09-11T18:24:07.558Z,4.03
2022-09-11T18:26:39.480Z,3.63
2022-09-11T18:29:11.776Z,9.30
2022-09-11T18:31:42.626Z,1.67
2022-09-11T18:34:12.400Z,0.97
2022-09-11T18:36:40.011Z,3.67
2022-09-11T18:39:07.096Z,1.37
2022-09-11T18:41:37.280Z,2.87
2022-09-11T18:44:14.108Z,5.83
2022-09-11T18:46:44.053Z,2.40
2022-09-11T18:49:16.207Z,2.57
2022-09-11T18:51:43.677Z,2.83
2022-09-11T18:54:18.381Z,5.70
2022-09-11T18:56:46.157Z,5.23
2022-09-11T18:59:14.194Z,2.90
2022-09-11T19:01:42.422Z,2.50
2022-09-11T19:04:11.284Z,2.53
2022-09-11T19:06:39.080Z,3.33
2022-09-11T19:09:10.457Z,1.93
2022-09-11T19:11:37.979Z,3.47
2022-09-11T19:14:07.932Z,2.73
2022-09-11T19:16:35.685Z,2.97
2022-09-11T19:19:03.451Z,7.40
2022-09-11T19:21:30.776Z,2.57
2022-09-11T19:24:00.378Z,2.60
2022-09-11T19:26:33.193Z,3.43
2022-09-11T19:29:00.712Z,3.83
2022-09-11T19:31:29.778Z,2.63
2022-09-11T19:33:58.002Z,1.53
2022-09-11T19:36:27.131Z,2.47
2022-09-11T19:39:01.178Z,2.83
2022-09-11T19:41:37.394Z,3.47
2022-09-11T19:44:05.887Z,1.40
2022-09-11T19:46:34.395Z,3.00
2022-09-11T19:49:06.490Z,4.33
2022-09-11T19:51:38.189Z,3.07
2022-09-11T19:54:06.169Z,4.17
2022-09-11T19:56:34.901Z,3.00
2022-09-11T19:59:02.378Z,3.63
2022-09-11T20:01:30.208Z,1.87
2022-09-11T20:03:57.869Z,1.93
2022-09-11T20:06:26.942Z,3.10
2022-09-11T20:09:07.953Z,1.10
2022-09-11T20:11:42.322Z,3.27
2022-09-11T20:14:10.434Z,4.57
2022-09-11T20:16:37.987Z,2.93
2022-09-11T20:19:06.633Z,3.27
2022-09-11T20:21:35.499Z,4.03
2022-09-11T20:24:03.347Z,4.37
2022-09-11T20:26:31.069Z,5.93
2022-09-11T20:29:00.499Z,5.23
2022-09-11T20:31:29.877Z,2.73
2022-09-11T20:33:57.339Z,2.53
2022-09-11T20:36:24.795Z,2.40
2022-09-11T20:38:53.556Z,7.17
2022-09-11T20:41:23.425Z,4.07
2022-09-11T20:43:50.729Z,4.03
2022-09-11T20:46:19.167Z,5.23
2022-09-11T20:48:50.168Z,1.90
2022-09-11T20:51:17.526Z,2.40
2022-09-11T20:53:47.449Z,4.37
2022-09-11T20:56:17.700Z,5.33
2022-09-11T20:58:45.297Z,5.00
2022-09-11T21:01:19.379Z,3.90
2022-09-11T21:03:49.032Z,6.13
2022-09-11T21:06:16.973Z,3.80
2022-09-11T21:08:44.538Z,4.27
2022-09-11T21:11:12.606Z,1.83
2022-09-11T21:13:41.379Z,1.47
2022-09-11T21:16:13.914Z,4.30
2022-09-11T21:18:45.946Z,4.33
2022-09-11T21:21:13.020Z,3.33
2022-09-11T21:23:40.093Z,5.57
2022-09-11T21:26:11.750Z,7.80
2022-09-11T21:28:39.267Z,2.60
2022-09-11T21:31:06.693Z,5.37
2022-09-11T21:33:35.221Z,2.37
2022-09-11T21:36:02.678Z,3.60
2022-09-11T21:38:30.053Z,3.03
2022-09-11T21:40:58.869Z,5.90
2022-09-11T21:43:26.140Z,3.63
2022-09-11T21:45:53.619Z,2.93
2022-09-11T21:48:20.966Z,2.53
2022-09-11T21:50:48.306Z,6.07
2022-09-11T21:53:15.705Z,3.90
2022-09-11T21:55:45.082Z,3.50
2022-09-11T21:58:20.662Z,3.57
2022-09-11T22:00:49.156Z,2.93
2022-09-11T22:03:18.593Z,4.13
2022-09-11T22:05:48.799Z,4.40
2022-09-11T22:08:17.793Z,3.77
2022-09-11T22:10:47.053Z,4.80
2022-09-11T22:13:14.732Z,3.03
2022-09-11T22:15:47.836Z,4.23
2022-09-11T22:18:15.861Z,4.70
2022-09-11T22:20:43.386Z,2.60
2022-09-11T22:23:22.870Z,5.57
2022-09-11T22:25:58.557Z,2.37
2022-09-11T22:28:26.270Z,6.97
2022-09-11T22:30:53.301Z,10.87
2022-09-11T22:33:20.319Z,6.97
2022-09-11T22:35:49.504Z,3.63
2022-09-11T22:38:17.080Z,3.43
2022-09-11T22:40:44.110Z,4.53
2022-09-11T22:43:11.142Z,3.33
2022-09-11T22:45:38.246Z,4.47
2022-09-11T22:48:05.293Z,4.33
2022-09-11T22:50:33.733Z,8.80
2022-09-11T22:53:00.756Z,3.30
2022-09-11T22:55:27.742Z,4.73
2022-09-11T22:57:55.333Z,4.03
2022-09-11T23:00:22.406Z,3.87
2022-09-11T23:02:49.529Z,4.90
2022-09-11T23:05:34.910Z,3.60
2022-09-11T23:08:02.138Z,6.73
2022-09-11T23:10:29.167Z,6.23
2022-09-11T23:12:56.266Z,5.57
2022-09-11T23:15:23.272Z,2.27
2022-09-11T23:17:50.275Z,2.27
2022-09-11T23:20:18.906Z,4.70
2022-09-11T23:22:45.952Z,3.53
2022-09-11T23:25:13.905Z,7.03
2022-09-11T23:27:40.963Z,5.43
2022-09-11T23:30:08.722Z,5.93
2022-09-11T23:32:38.735Z,4.10
2022-09-11T23:35:09.715Z,2.67
2022-09-11T23:37:36.861Z,4.73
2022-09-11T23:40:07.737Z,3.57
2022-09-11T23:42:34.805Z,4.23
2022-09-11T23:45:01.777Z,3.23
2022-09-11T23:47:28.859Z,5.10
2022-09-11T23:49:55.985Z,4.13
2022-09-11T23:52:23.005Z,5.33
2022-09-11T23:54:49.985Z,5.17
2022-09-11T23:57:17.017Z,5.97
2022-09-11T23:59:44.109Z,5.03
